Time;durP1;ratioP1;P1;durP2;ratioP2;P2;SDS_P1;SDS_P2;PMS_P1;PMS_P2;Temp;Humidity;BMP_temperature;BMP_pressure;BME280_temperature;BME280_humidity;BME280_pressure;Samples;Min_cycle;Max_cycle;Signal;HPM_P1;HPM_P2
2022/11/13 00:01:26;;;;;;;2.63;1.23;;;;;;;8.31;77.42;101217.50;5015888;28;20036;-74
2022/11/13 00:03:51;;;;;;;1.60;1.50;;;;;;;8.32;77.62;101213.03;5014774;28;20424;-73
2022/11/13 00:06:18;;;;;;;3.30;1.50;;;;;;;8.21;76.71;101197.25;5016131;28;20037;-75
2022/11/13 00:08:44;;;;;;;1.57;1.40;;;;;;;8.29;76.47;101216.81;5015696;28;20057;-74
2022/11/13 00:11:13;;;;;;;1.90;0.97;;;;;;;8.32;75.55;101234.25;5016033;28;20037;-74
2022/11/13 00:13:40;;;;;;;3.70;1.60;;;;;;;8.31;75.73;101228.13;5015430;28;20034;-74
2022/11/13 00:16:09;;;;;;;2.00;1.00;;;;;;;8.35;74.52;101221.59;5014931;28;20099;-74
2022/11/13 00:18:36;;;;;;;1.87;1.77;;;;;;;8.30;75.38;101218.47;4996375;28;20125;-73
2022/11/13 00:21:11;;;;;;;3.27;1.00;;;;;;;8.34;74.95;101230.53;5013838;28;20092;-74
2022/11/13 00:23:39;;;;;;;1.47;1.00;;;;;;;8.32;74.57;101235.09;5013809;28;20052;-74
2022/11/13 00:26:07;;;;;;;0.80;0.80;;;;;;;8.27;75.32;101226.72;4996224;28;20033;-75
2022/11/13 00:28:33;;;;;;;2.77;0.77;;;;;;;8.33;75.16;101235.94;5014137;28;20038;-76
2022/11/13 00:31:03;;;;;;;0.97;0.80;;;;;;;8.31;74.92;101228.13;5013856;28;20030;-73
2022/11/13 00:33:29;;;;;;;2.30;1.30;;;;;;;8.30;74.85;101237.06;5013982;28;20042;-74
2022/11/13 00:36:04;;;;;;;1.90;1.10;;;;;;;8.33;74.77;101247.44;5013512;28;20040;-74
2022/11/13 00:38:30;;;;;;;2.93;0.90;;;;;;;8.31;74.75;101259.13;5013657;28;20072;-75
2022/11/13 00:40:55;;;;;;;2.53;1.40;;;;;;;8.30;73.86;101258.28;5013177;28;20030;-74
2022/11/13 00:43:21;;;;;;;2.00;1.10;;;;;;;8.24;73.87;101248.22;5013639;28;20452;-74
2022/11/13 00:45:46;;;;;;;0.93;0.87;;;;;;;8.33;73.80;101268.66;5013406;28;20028;-74
2022/11/13 00:48:13;;;;;;;1.00;0.90;;;;;;;8.27;73.97;101258.56;5013255;28;20056;-74
2022/11/13 00:50:39;;;;;;;0.90;0.83;;;;;;;8.28;73.53;101260.25;5013083;28;20430;-74
2022/11/13 00:53:04;;;;;;;4.10;0.80;;;;;;;8.28;74.15;101270.84;5013386;28;20036;-74
2022/11/13 00:55:30;;;;;;;1.97;0.77;;;;;;;8.22;74.53;101268.75;5013393;28;20044;-74
2022/11/13 00:57:55;;;;;;;2.23;1.50;;;;;;;8.20;74.01;101270.69;5013343;28;20034;-74
2022/11/13 01:00:21;;;;;;;1.53;1.10;;;;;;;8.17;74.62;101270.97;5013941;28;20028;-75
2022/11/13 01:02:46;;;;;;;0.70;0.70;;;;;;;8.21;74.01;101288.28;5013606;28;20025;-74
2022/11/13 01:05:12;;;;;;;1.33;1.20;;;;;;;8.27;73.81;101298.38;5013710;28;20084;-74
2022/11/13 01:07:37;;;;;;;1.90;0.80;;;;;;;8.24;74.22;101290.69;5013157;28;20042;-73
2022/11/13 01:10:06;;;;;;;5.70;1.17;;;;;;;8.29;72.58;101299.06;5013522;28;20030;-74
2022/11/13 01:12:32;;;;;;;1.27;1.07;;;;;;;8.29;73.66;101317.66;5013481;28;20022;-74
2022/11/13 01:14:58;;;;;;;0.90;0.90;;;;;;;8.25;72.82;101302.97;5013118;28;20383;-74
2022/11/13 01:17:24;;;;;;;1.33;1.10;;;;;;;8.23;72.38;101320.84;5028967;28;20030;-74
2022/11/13 01:19:50;;;;;;;1.10;1.00;;;;;;;8.23;73.02;101310.22;5015574;28;20029;-74
2022/11/13 01:22:18;;;;;;;1.43;1.00;;;;;;;8.22;71.80;101319.16;5014579;28;20473;-74
2022/11/13 01:24:49;;;;;;;1.42;1.13;;;;;;;8.24;71.76;101311.91;5015587;28;20124;-74
2022/11/13 01:27:15;;;;;;;1.87;1.00;;;;;;;8.29;72.21;101332.72;4995679;28;20492;-74
2022/11/13 01:29:41;;;;;;;2.00;1.80;;;;;;;8.24;72.07;101333.13;5013169;28;20030;-72
2022/11/13 01:32:07;;;;;;;0.87;0.87;;;;;;;8.24;71.17;101343.75;5013899;28;20038;-74
2022/11/13 01:34:32;;;;;;;1.17;0.90;;;;;;;8.26;71.81;101339.16;5013386;28;20072;-74
2022/11/13 01:36:58;;;;;;;1.93;1.67;;;;;;;8.27;71.42;101351.44;5013177;28;20026;-74
2022/11/13 01:39:23;;;;;;;2.63;0.83;;;;;;;8.14;71.03;101321.66;5013178;28;20033;-74
2022/11/13 01:41:49;;;;;;;1.67;1.00;;;;;;;8.26;70.07;101351.56;5013456;28;20065;-73
2022/11/13 01:44:16;;;;;;;2.70;1.27;;;;;;;8.23;68.31;101363.28;5014167;28;20029;-73
2022/11/13 01:46:47;;;;;;;1.53;0.93;;;;;;;8.25;68.01;101352.56;5014466;28;20381;-72
2022/11/13 01:49:29;;;;;;;2.43;1.00;;;;;;;8.25;68.04;101368.47;5015249;28;20053;-73
2022/11/13 01:51:56;;;;;;;;;;;;;;;8.24;66.89;101383.56;5017729;28;20037;-73
2022/11/13 01:54:26;;;;;;;1.40;1.30;;;;;;;8.23;67.64;101368.59;5018949;28;19916;-74
2022/11/13 01:56:53;;;;;;;1.40;0.80;;;;;;;8.14;66.67;101363.25;5023087;28;20072;-73
2022/11/13 01:59:26;;;;;;;2.20;0.83;;;;;;;8.18;66.81;101397.34;5026874;28;20560;-74
2022/11/13 02:01:53;;;;;;;1.30;1.10;;;;;;;8.15;66.13;101378.22;5026340;28;20034;-73
2022/11/13 02:04:18;;;;;;;1.53;1.10;;;;;;;8.18;66.01;101397.34;5029624;28;20112;-73
2022/11/13 02:06:46;;;;;;;1.57;0.87;;;;;;;8.17;65.60;101406.28;5019734;28;20113;-73
2022/11/13 02:09:13;;;;;;;0.80;0.80;;;;;;;8.13;64.75;101410.19;5029188;28;20022;-73
2022/11/13 02:11:40;;;;;;;1.33;0.80;;;;;;;8.13;64.75;101412.81;5028619;28;20061;-74
2022/11/13 02:14:07;;;;;;;1.17;0.80;;;;;;;8.08;64.45;101423.81;5017079;28;20052;-74
2022/11/13 02:16:35;;;;;;;1.17;1.07;;;;;;;8.07;63.51;101415.97;5032562;28;20036;-75
2022/11/13 02:19:10;;;;;;;2.60;0.90;;;;;;;8.07;63.32;101426.59;5019599;28;20042;-74
2022/11/13 02:21:36;;;;;;;2.30;0.80;;;;;;;8.08;62.94;101436.22;5033176;28;20050;-74
2022/11/13 02:24:35;;;;;;;1.17;0.90;;;;;;;8.05;63.12;101440.00;5031353;28;20511;-74
2022/11/13 02:27:05;;;;;;;0.75;0.70;;;;;;;8.04;63.49;101427.69;5031403;28;20037;-74
2022/11/13 02:29:30;;;;;;;1.13;0.90;;;;;;;8.00;63.44;101430.75;5012310;28;20026;-75
2022/11/13 02:31:56;;;;;;;2.07;0.97;;;;;;;8.03;62.60;101443.75;5022250;28;20076;-74
2022/11/13 02:34:22;;;;;;;1.57;0.80;;;;;;;7.92;63.40;101433.22;5015710;28;20104;-74
2022/11/13 02:36:48;;;;;;;1.93;0.93;;;;;;;7.95;63.65;101448.88;4998671;28;20029;-74
2022/11/13 02:39:13;;;;;;;1.07;0.80;;;;;;;7.95;64.07;101455.00;5020691;28;20087;-75
2022/11/13 02:41:39;;;;;;;0.80;0.70;;;;;;;7.83;63.41;101444.59;5021906;28;20049;-72
2022/11/13 02:44:06;;;;;;;1.00;0.70;;;;;;;7.91;63.71;101453.59;5027959;28;20030;-73
2022/11/13 02:46:31;;;;;;;1.20;0.70;;;;;;;7.98;64.13;101485.72;5002302;28;20026;-73
2022/11/13 02:48:57;;;;;;;1.83;0.83;;;;;;;7.99;64.55;101471.50;5016198;28;20026;-74
2022/11/13 02:51:48;;;;;;;1.07;0.77;;;;;;;8.00;64.75;101489.09;5016352;28;20053;-74
2022/11/13 02:54:13;;;;;;;1.43;1.00;;;;;;;7.98;64.05;101488.38;5016313;28;20030;-73
2022/11/13 02:56:39;;;;;;;1.53;0.90;;;;;;;7.97;64.44;101481.41;5015674;28;20053;-74
2022/11/13 02:59:04;;;;;;;2.57;0.90;;;;;;;7.90;64.64;101488.19;4998163;28;20025;-72
2022/11/13 03:01:30;;;;;;;0.70;0.70;;;;;;;7.90;63.97;101499.66;5015930;28;20033;-75
2022/11/13 03:03:55;;;;;;;1.63;1.07;;;;;;;7.80;64.65;101484.59;5015939;28;20474;-73
2022/11/13 03:06:21;;;;;;;1.20;1.00;;;;;;;7.86;64.90;101508.81;5016005;28;20092;-74
2022/11/13 03:08:46;;;;;;;1.10;1.00;;;;;;;7.58;64.73;101475.78;5015522;28;20413;-72
2022/11/13 03:11:12;;;;;;;0.97;0.77;;;;;;;7.84;65.00;101520.53;5015582;28;20026;-74
2022/11/13 03:13:38;;;;;;;5.70;1.27;;;;;;;7.80;65.23;101529.69;5015427;28;20076;-74
2022/11/13 03:16:15;;;;;;;1.00;0.83;;;;;;;7.76;65.86;101526.44;5015264;28;20060;-74
2022/11/13 03:18:41;;;;;;;0.77;0.77;;;;;;;7.57;65.59;101511.22;5015046;28;20030;-74
2022/11/13 03:21:09;;;;;;;1.10;1.00;;;;;;;7.68;65.62;101534.19;5016367;28;20034;-74
2022/11/13 03:23:38;;;;;;;1.20;0.95;;;;;;;7.68;66.03;101542.97;5016620;28;20073;-74
2022/11/13 03:26:11;;;;;;;1.83;0.93;;;;;;;7.65;67.17;101550.34;5015710;28;20033;-74
2022/11/13 03:28:36;;;;;;;1.30;1.07;;;;;;;7.61;66.74;101568.31;5014715;28;20049;-73
2022/11/13 03:31:03;;;;;;;1.10;1.00;;;;;;;7.62;66.10;101575.31;5014474;28;20458;-74
2022/11/13 03:33:29;;;;;;;2.43;0.90;;;;;;;7.64;66.72;101573.38;5015003;28;20417;-73
2022/11/13 03:35:55;;;;;;;3.50;1.00;;;;;;;7.67;66.73;101588.19;5014995;28;20092;-73
2022/11/13 03:38:21;;;;;;;0.80;0.80;;;;;;;7.63;67.20;101576.97;5015239;28;20541;-74
2022/11/13 03:40:46;;;;;;;1.80;1.10;;;;;;;7.59;67.09;101577.34;5014931;28;20026;-75
2022/11/13 03:43:12;;;;;;;1.00;0.90;;;;;;;7.60;67.25;101606.41;5014851;28;20061;-73
2022/11/13 03:45:37;;;;;;;0.70;0.70;;;;;;;7.53;67.18;101594.59;5014803;28;20040;-74
2022/11/13 03:48:03;;;;;;;3.53;1.10;;;;;;;7.51;67.54;101588.56;4996955;28;20481;-73
2022/11/13 03:50:29;;;;;;;5.63;1.10;;;;;;;7.56;68.11;101597.00;5014106;28;20025;-73
2022/11/13 03:52:55;;;;;;;2.30;0.93;;;;;;;7.44;68.24;101580.25;5014487;28;20029;-73
2022/11/13 03:55:20;;;;;;;1.43;1.10;;;;;;;7.56;68.16;101604.97;5014515;28;20079;-74
2022/11/13 03:57:46;;;;;;;1.80;0.90;;;;;;;7.49;68.13;101617.00;4997399;28;20374;-74
2022/11/13 04:00:13;;;;;;;1.37;1.27;;;;;;;7.42;67.86;101615.81;5015015;28;20037;-73
2022/11/13 04:02:39;;;;;;;2.40;1.00;;;;;;;7.38;68.54;101630.25;5014502;28;20026;-73
2022/11/13 04:05:05;;;;;;;3.60;0.87;;;;;;;7.31;69.10;101626.41;5014474;28;20035;-75
2022/11/13 04:07:31;;;;;;;2.90;0.90;;;;;;;7.24;69.91;101625.22;5013829;28;20128;-75
2022/11/13 04:09:56;;;;;;;3.20;0.93;;;;;;;7.14;69.22;101647.09;5014059;28;20108;-73
2022/11/13 04:12:22;;;;;;;0.80;0.80;;;;;;;7.15;69.78;101648.78;5013833;28;20457;-73
2022/11/13 04:14:47;;;;;;;0.97;0.90;;;;;;;7.07;69.47;101637.94;5014238;28;20029;-73
2022/11/13 04:17:13;;;;;;;4.23;1.17;;;;;;;7.05;69.64;101645.16;5014119;28;20025;-73
2022/11/13 04:19:38;;;;;;;1.10;1.00;;;;;;;7.12;70.29;101658.78;5013715;28;20038;-74
2022/11/13 04:22:04;;;;;;;1.57;1.30;;;;;;;7.17;69.70;101676.97;5013550;28;20133;-73
2022/11/13 04:24:30;;;;;;;0.80;0.80;;;;;;;7.11;70.55;101680.94;4979535;28;20493;-72
2022/11/13 04:26:56;;;;;;;1.57;0.97;;;;;;;7.08;71.12;101684.66;5012931;28;20021;-74
2022/11/13 04:29:21;;;;;;;2.53;1.00;;;;;;;7.04;71.10;101706.22;5013484;28;20030;-73
2022/11/13 04:31:47;;;;;;;2.63;1.07;;;;;;;6.94;71.98;101708.72;5013622;28;20030;-73
2022/11/13 04:34:12;;;;;;;2.17;1.00;;;;;;;6.61;73.05;101672.38;5013517;28;20026;-72
2022/11/13 04:36:38;;;;;;;2.13;1.00;;;;;;;6.71;73.08;101715.75;5014357;28;20025;-73
2022/11/13 04:39:03;;;;;;;1.37;1.20;;;;;;;6.61;73.68;101719.16;5000582;28;20025;-72
2022/11/13 04:44:13;;;;;;;1.00;0.83;;;;;;;6.56;74.41;101730.09;5007142;28;20025;-73
2022/11/13 04:46:38;;;;;;;3.03;1.00;;;;;;;6.43;74.08;101724.88;5024950;28;20108;-74
2022/11/13 04:49:04;;;;;;;10.60;1.43;;;;;;;6.45;75.09;101733.53;5023808;28;20029;-74
2022/11/13 04:51:30;;;;;;;1.90;1.03;;;;;;;6.42;74.53;101736.41;5023849;28;20037;-74
2022/11/13 04:54:20;;;;;;;4.83;1.10;;;;;;;6.43;75.40;101743.41;5013408;28;20060;-73
2022/11/13 04:56:46;;;;;;;2.17;1.20;;;;;;;6.38;75.23;101731.47;5013100;28;20042;-74
2022/11/13 04:59:12;;;;;;;3.07;1.30;;;;;;;6.42;75.12;101747.00;5013435;28;20454;-72
2022/11/13 05:01:37;;;;;;;2.20;1.30;;;;;;;6.41;75.56;101745.31;4980465;28;20026;-73
2022/11/13 05:04:03;;;;;;;2.33;1.03;;;;;;;6.51;76.07;101766.66;5014375;28;20040;-73
2022/11/13 05:06:29;;;;;;;3.47;1.47;;;;;;;6.49;76.33;101774.69;5013408;28;20045;-73
2022/11/13 05:08:54;;;;;;;1.23;0.93;;;;;;;6.46;76.80;101772.28;5013898;28;20032;-73
2022/11/13 05:11:20;;;;;;;1.20;1.10;;;;;;;6.52;76.60;101789.50;5013113;28;20038;-74
2022/11/13 05:13:45;;;;;;;1.33;1.07;;;;;;;6.49;76.64;101785.28;5013418;28;20494;-73
2022/11/13 05:16:13;;;;;;;2.07;1.40;;;;;;;6.50;76.64;101802.00;5013753;28;20088;-72
2022/11/13 05:18:38;;;;;;;1.50;0.83;;;;;;;6.47;77.46;101804.88;5014079;28;20026;-74
2022/11/13 05:21:08;;;;;;;1.90;1.00;;;;;;;6.34;78.53;101802.25;5006268;28;20029;-74
2022/11/13 05:23:34;;;;;;;2.53;1.80;;;;;;;6.30;77.63;101808.72;5023620;28;20091;-72
2022/11/13 05:26:01;;;;;;;2.90;1.87;;;;;;;6.18;77.83;101801.66;5022623;28;20497;-75
2022/11/13 05:28:27;;;;;;;1.83;1.27;;;;;;;6.24;77.90;101822.38;5022923;28;20060;-73
2022/11/13 05:30:52;;;;;;;2.70;0.90;;;;;;;6.17;77.78;101829.06;5024926;28;20027;-73
2022/11/13 05:33:18;;;;;;;1.73;1.30;;;;;;;6.10;77.58;101825.19;5019858;28;20045;-74
2022/11/13 05:35:43;;;;;;;2.23;0.90;;;;;;;6.09;77.62;101828.78;5013300;28;20358;-73
2022/11/13 05:38:09;;;;;;;3.07;1.10;;;;;;;6.03;77.68;101831.81;5014606;28;20046;-74
2022/11/13 05:40:34;;;;;;;1.40;1.30;;;;;;;6.07;77.38;101849.16;5016521;28;20022;-74
2022/11/13 05:43:00;;;;;;;4.20;1.30;;;;;;;6.06;77.11;101843.03;5017108;28;20041;-74
2022/11/13 05:45:25;;;;;;;3.23;1.40;;;;;;;6.08;77.59;101851.72;5017277;28;20033;-73
2022/11/13 05:47:51;;;;;;;3.57;1.23;;;;;;;5.99;76.79;101846.22;5016523;28;20100;-74
2022/11/13 05:50:17;;;;;;;1.67;1.50;;;;;;;6.02;77.27;101859.22;5016768;28;20100;-74
2022/11/13 05:52:42;;;;;;;1.60;1.37;;;;;;;6.02;77.52;101872.44;5017246;28;20374;-74
2022/11/13 05:55:33;;;;;;;2.93;1.30;;;;;;;5.91;78.17;101867.91;5016802;28;20061;-73
2022/11/13 05:57:58;;;;;;;1.80;1.30;;;;;;;5.85;77.59;101869.16;5016828;28;20033;-75
2022/11/13 06:00:24;;;;;;;3.90;1.60;;;;;;;5.91;78.26;101889.06;5016420;28;20034;-74
2022/11/13 06:02:49;;;;;;;2.00;1.30;;;;;;;5.85;78.19;101892.94;5016756;28;20040;-74
2022/11/13 06:05:14;;;;;;;2.10;1.43;;;;;;;5.88;78.28;101905.94;5016073;28;20061;-74
2022/11/13 06:07:40;;;;;;;3.57;1.03;;;;;;;5.88;78.86;101905.09;5016039;28;20542;-73
2022/11/13 06:10:06;;;;;;;1.53;1.10;;;;;;;5.83;79.11;101908.06;5016035;28;20029;-74
2022/11/13 06:12:31;;;;;;;1.27;1.17;;;;;;;5.84;79.57;101919.47;5016118;28;20358;-75
2022/11/13 06:14:57;;;;;;;2.83;1.17;;;;;;;5.80;79.69;101913.56;5016217;28;20036;-74
2022/11/13 06:17:22;;;;;;;2.17;1.83;;;;;;;5.78;79.95;101926.03;4998608;28;20071;-75
2022/11/13 06:19:48;;;;;;;5.50;1.60;;;;;;;5.78;80.36;101931.31;5015998;28;20030;-74
2022/11/13 06:22:17;;;;;;;7.00;1.60;;;;;;;5.72;80.40;101922.94;5016045;28;20073;-74
2022/11/13 06:24:43;;;;;;;1.60;1.40;;;;;;;5.70;80.93;101928.31;5016024;28;20497;-75
2022/11/13 06:27:08;;;;;;;4.83;1.43;;;;;;;5.73;81.23;101932.56;5015784;28;20040;-74
2022/11/13 06:29:34;;;;;;;3.70;1.23;;;;;;;5.73;81.33;101937.84;5016285;28;20105;-74
2022/11/13 06:31:59;;;;;;;4.63;1.30;;;;;;;5.74;82.36;101948.31;5015984;28;20029;-74
2022/11/13 06:34:25;;;;;;;2.40;1.33;;;;;;;5.78;81.75;101949.81;5016727;28;20359;-75
2022/11/13 06:36:50;;;;;;;1.50;1.40;;;;;;;5.80;82.51;101947.94;5017825;28;20445;-75
2022/11/13 06:39:16;;;;;;;5.70;2.10;;;;;;;5.80;82.64;101950.56;5017835;28;20136;-73
2022/11/13 06:41:41;;;;;;;2.17;1.10;;;;;;;5.76;82.98;101959.63;4983764;28;20030;-74
2022/11/13 06:44:07;;;;;;;1.73;1.53;;;;;;;5.77;82.74;101969.25;5016044;28;20026;-76
2022/11/13 06:46:33;;;;;;;3.10;1.20;;;;;;;5.68;83.20;101948.72;5016115;28;20034;-72
2022/11/13 06:48:58;;;;;;;2.60;1.60;;;;;;;5.82;82.92;101974.25;5015810;28;20477;-76
2022/11/13 06:51:27;;;;;;;2.30;1.70;;;;;;;5.78;83.33;101970.97;5015863;28;20385;-74
2022/11/13 06:53:53;;;;;;;17.67;1.60;;;;;;;5.89;83.32;101992.28;5015305;28;20030;-76
2022/11/13 06:56:44;;;;;;;5.50;1.50;;;;;;;5.97;83.16;101982.97;5001489;28;20064;-72
2022/11/13 06:59:10;;;;;;;6.07;1.30;;;;;;;5.99;83.28;101989.00;5015071;28;20469;-75
2022/11/13 07:01:36;;;;;;;6.93;1.43;;;;;;;6.05;83.15;102000.00;5014769;28;20030;-76
2022/11/13 07:04:03;;;;;;;6.90;1.27;;;;;;;6.05;82.38;102001.81;5014950;28;20033;-77
2022/11/13 07:06:28;;;;;;;2.93;1.13;;;;;;;6.12;82.13;102003.13;4997465;28;20061;-74
2022/11/13 07:08:54;;;;;;;2.23;1.33;;;;;;;6.19;82.25;102007.88;5015624;28;20064;-73
2022/11/13 07:11:21;;;;;;;1.70;1.07;;;;;;;6.29;82.02;102009.91;5015455;28;20026;-75
2022/11/13 07:13:53;;;;;;;2.67;1.20;;;;;;;6.33;81.92;102012.22;5014913;28;20060;-77
2022/11/13 07:16:19;;;;;;;2.30;1.43;;;;;;;6.45;81.09;102024.63;4997508;28;20474;-76
2022/11/13 07:18:54;;;;;;;4.23;1.73;;;;;;;6.49;80.81;102031.41;5014489;28;20029;-75
2022/11/13 07:21:22;;;;;;;6.67;2.27;;;;;;;6.53;80.87;102040.81;5015169;28;20033;-74
2022/11/13 07:23:50;;;;;;;4.77;3.47;;;;;;;6.57;80.65;102044.09;5015579;28;20042;-74
2022/11/13 07:26:15;;;;;;;1.50;1.40;;;;;;;6.58;80.72;102047.59;5014592;28;20171;-75
2022/11/13 07:28:41;;;;;;;2.90;1.20;;;;;;;6.47;80.24;102035.09;5014731;28;20136;-75
2022/11/13 07:31:09;;;;;;;5.40;1.50;;;;;;;6.60;79.33;102059.78;5014801;28;20498;-76
2022/11/13 07:33:35;;;;;;;2.60;1.15;;;;;;;6.56;78.99;102057.44;5015196;28;20041;-75
2022/11/13 07:36:01;;;;;;;2.83;1.43;;;;;;;6.49;79.14;102055.22;5015488;28;20037;-75
2022/11/13 07:38:26;;;;;;;1.20;1.10;;;;;;;6.51;80.13;102063.91;5014544;28;20065;-75
2022/11/13 07:40:52;;;;;;;1.70;1.20;;;;;;;6.49;79.42;102060.50;5014460;28;20056;-74
2022/11/13 07:43:17;;;;;;;2.87;1.50;;;;;;;6.38;79.36;102047.19;5014527;28;20029;-77
2022/11/13 07:45:43;;;;;;;1.47;1.20;;;;;;;6.47;79.63;102061.56;5014529;28;20040;-76
2022/11/13 07:48:09;;;;;;;2.43;1.13;;;;;;;6.56;80.17;102078.63;5014691;28;20061;-73
2022/11/13 07:50:36;;;;;;;8.90;1.97;;;;;;;6.61;80.17;102080.00;5014267;28;20026;-73
2022/11/13 07:53:04;;;;;;;8.20;1.70;;;;;;;6.68;80.10;102091.03;5014328;28;20033;-74
2022/11/13 07:55:32;;;;;;;3.42;1.63;;;;;;;6.69;79.52;102083.00;5013972;28;20037;-74
2022/11/13 07:57:59;;;;;;;3.53;1.70;;;;;;;6.78;79.54;102092.09;5013831;28;20034;-75
2022/11/13 08:00:26;;;;;;;4.97;1.40;;;;;;;6.65;78.90;102077.97;5013226;28;20548;-77
2022/11/13 08:02:52;;;;;;;2.03;1.50;;;;;;;6.81;77.98;102097.16;4997132;28;20030;-74
2022/11/13 08:05:17;;;;;;;1.73;1.17;;;;;;;6.74;78.85;102096.75;5015036;28;20033;-75
2022/11/13 08:07:55;;;;;;;3.07;1.83;;;;;;;6.71;79.62;102085.53;5013801;28;20473;-76
2022/11/13 08:10:21;;;;;;;4.43;1.20;;;;;;;6.80;79.34;102109.56;5014131;28;20037;-73
2022/11/13 08:12:46;;;;;;;3.77;1.80;;;;;;;6.93;79.11;102106.91;5013909;28;20029;-78
2022/11/13 08:15:13;;;;;;;3.00;1.80;;;;;;;6.93;78.59;102111.34;5014245;28;20042;-75
2022/11/13 08:17:39;;;;;;;1.87;1.40;;;;;;;6.89;77.99;102110.72;4997059;28;20041;-77
2022/11/13 08:20:06;;;;;;;2.87;1.50;;;;;;;6.83;77.94;102121.75;4997361;28;20048;-75
2022/11/13 08:22:32;;;;;;;3.13;1.43;;;;;;;6.63;78.89;102109.84;5014738;28;20056;-78
2022/11/13 08:24:58;;;;;;;4.03;1.80;;;;;;;6.56;78.95;102107.72;5014742;28;20056;-76
2022/11/13 08:27:24;;;;;;;6.10;1.80;;;;;;;6.71;78.78;102117.28;4995769;28;20474;-74
2022/11/13 08:29:51;;;;;;;1.73;1.53;;;;;;;6.66;78.82;102114.13;5013904;28;20029;-76
2022/11/13 08:32:18;;;;;;;3.13;1.77;;;;;;;6.66;79.25;102130.00;5012855;28;20041;-77
2022/11/13 08:34:43;;;;;;;6.77;2.13;;;;;;;6.65;79.15;102123.88;5014482;28;20030;-75
2022/11/13 08:37:09;;;;;;;2.33;1.50;;;;;;;6.61;78.95;102122.34;5013908;28;20470;-76
2022/11/13 08:39:35;;;;;;;5.60;1.80;;;;;;;6.51;79.30;102114.19;4998613;28;20121;-74
2022/11/13 08:42:02;;;;;;;6.37;2.30;;;;;;;6.52;79.75;102120.34;5003598;28;20021;-76
2022/11/13 08:44:37;;;;;;;6.50;1.50;;;;;;;6.60;79.04;102133.03;4990477;28;20053;-80
2022/11/13 08:47:05;;;;;;;3.73;1.77;;;;;;;6.63;78.48;102140.78;5005390;28;20101;-80
2022/11/13 08:49:45;;;;;;;2.63;1.43;;;;;;;6.87;77.34;102115.28;5004046;28;20285;-78
2022/11/13 08:52:14;;;;;;;3.35;2.00;;;;;;;7.25;76.23;102146.22;5017348;28;20038;-76
2022/11/13 08:54:40;;;;;;;2.70;1.80;;;;;;;7.41;75.28;102155.63;5015839;28;20140;-82
2022/11/13 08:57:06;;;;;;;2.83;2.23;;;;;;;7.62;73.59;102155.06;5016899;28;20053;-79
2022/11/13 08:59:33;;;;;;;2.50;1.60;;;;;;;7.58;73.37;102157.09;5014334;28;20104;-81
2022/11/13 09:01:59;;;;;;;2.53;1.73;;;;;;;7.34;74.05;102161.47;5018385;28;20461;-77
2022/11/13 09:04:25;;;;;;;2.70;1.20;;;;;;;7.23;73.50;102161.34;4996506;28;20124;-75
2022/11/13 09:06:51;;;;;;;3.43;1.73;;;;;;;7.17;74.37;102167.09;4999017;28;20121;-76
2022/11/13 09:09:17;;;;;;;3.47;2.03;;;;;;;7.06;75.04;102166.03;4981680;28;20378;-77
2022/11/13 09:11:43;;;;;;;5.27;1.73;;;;;;;7.05;74.32;102171.44;5013390;28;20032;-79
2022/11/13 09:14:08;;;;;;;1.30;1.10;;;;;;;7.12;73.43;102186.81;5015806;28;20029;-76
2022/11/13 09:16:34;;;;;;;1.97;1.37;;;;;;;7.21;73.67;102165.91;5014270;28;20470;-78
2022/11/13 09:19:00;;;;;;;3.07;1.33;;;;;;;7.20;73.83;102183.63;5012304;28;20074;-76
2022/11/13 09:21:26;;;;;;;1.73;1.23;;;;;;;7.06;74.04;102186.38;5014423;28;20030;-76
2022/11/13 09:23:56;;;;;;;2.67;1.30;;;;;;;6.91;74.85;102193.56;4994950;28;20470;-73
2022/11/13 09:26:21;;;;;;;3.80;1.53;;;;;;;6.88;75.16;102193.78;5012587;28;20037;-73
2022/11/13 09:28:47;;;;;;;1.60;1.50;;;;;;;6.85;75.94;102183.38;5012432;28;20030;-74
2022/11/13 09:31:13;;;;;;;1.53;1.43;;;;;;;7.00;74.89;102192.97;5011080;28;20041;-75
2022/11/13 09:33:38;;;;;;;2.57;1.57;;;;;;;7.10;75.01;102204.59;5009832;28;20535;-75
2022/11/13 09:36:14;;;;;;;1.87;1.60;;;;;;;7.09;75.62;102191.47;5012500;28;20415;-73
2022/11/13 09:38:40;;;;;;;3.83;1.43;;;;;;;7.22;74.51;102204.72;5011529;28;20040;-70
2022/11/13 09:41:10;;;;;;;2.47;1.57;;;;;;;7.42;74.34;102212.13;4999707;28;20090;-76
2022/11/13 09:43:52;;;;;;;8.10;2.83;;;;;;;7.28;74.84;102206.97;5015443;28;20026;-77
2022/11/13 09:47:08;;;;;;;4.70;1.60;;;;;;;7.21;75.79;102216.25;5017768;28;20408;-78
2022/11/13 09:50:42;;;;;;;2.27;1.70;;;;;;;7.03;76.55;102218.38;4972257;28;20060;-78
2022/11/13 09:53:11;;;;;;;2.50;1.50;;;;;;;6.94;75.59;102219.88;5013651;28;20040;-77
2022/11/13 09:55:40;;;;;;;1.77;1.67;;;;;;;6.94;75.65;102235.75;5014381;28;20026;-83
2022/11/13 09:58:32;;;;;;;4.10;1.83;;;;;;;6.83;76.35;102230.31;5010234;28;20029;-85
2022/11/13 10:00:59;;;;;;;3.33;1.37;;;;;;;6.73;76.59;102242.47;5012537;28;20033;-83
2022/11/13 10:03:38;;;;;;;4.53;1.57;;;;;;;6.73;76.86;102238.03;5016013;28;20034;-80
2022/11/13 10:06:15;;;;;;;;;;;;;;;6.74;77.06;102238.88;5014876;28;20033;-77
2022/11/13 10:09:04;;;;;;;6.43;1.47;;;;;;;6.76;76.73;102251.06;5020757;28;19909;-81
2022/11/13 10:15:53;;;;;;;2.47;1.67;;;;;;;6.27;76.86;102192.53;4967995;28;20053;-75
2022/11/13 10:18:26;;;;;;;2.50;1.70;;;;;;;6.70;77.32;102261.22;4940331;28;20081;-74
2022/11/13 10:20:56;;;;;;;4.37;2.43;;;;;;;6.72;76.92;102256.66;5013330;28;20056;-71
2022/11/13 10:23:32;;;;;;;2.63;1.50;;;;;;;6.72;75.41;102251.38;5018248;28;20064;-76
2022/11/13 10:26:09;;;;;;;1.60;1.40;;;;;;;6.84;75.53;102242.59;5001757;28;20037;-75
2022/11/13 10:28:35;;;;;;;4.73;1.43;;;;;;;7.28;73.41;102260.81;5016661;28;20045;-79
2022/11/13 10:31:00;;;;;;;1.50;1.40;;;;;;;7.44;71.72;102249.97;5020082;28;20378;-75
2022/11/13 10:33:26;;;;;;;2.83;1.30;;;;;;;7.29;72.50;102270.47;5022565;28;20113;-79
2022/11/13 10:36:23;;;;;;;2.73;1.47;;;;;;;7.01;73.74;102274.13;5022858;28;20407;-74
2022/11/13 10:38:51;;;;;;;1.50;1.37;;;;;;;6.89;73.88;102277.56;4993655;28;20038;-77
2022/11/13 10:41:21;;;;;;;4.10;2.50;;;;;;;6.82;74.83;102270.97;4984096;28;20520;-76
2022/11/13 10:44:05;;;;;;;3.23;1.43;;;;;;;6.92;74.21;102285.31;5020495;28;20124;-74
2022/11/13 10:46:32;;;;;;;3.27;1.40;;;;;;;6.94;73.56;102294.03;5017518;28;20038;-76
2022/11/13 10:49:09;;;;;;;2.40;2.20;;;;;;;6.73;74.37;102275.09;4999147;28;20417;-75
2022/11/13 10:51:35;;;;;;;2.13;1.67;;;;;;;6.83;74.27;102313.25;5016093;28;20030;-73
2022/11/13 10:54:24;;;;;;;1.63;1.53;;;;;;;6.70;74.50;102300.94;5025817;28;20037;-73
2022/11/13 10:57:03;;;;;;;;;;;;;;;6.77;74.83;102302.22;5012512;28;20030;-76
2022/11/13 10:59:42;;;;;;;3.80;1.50;;;;;;;6.74;75.17;102302.41;5016365;28;19972;-71
2022/11/13 11:02:10;;;;;;;2.05;1.40;;;;;;;6.75;75.31;102314.72;5011430;28;20462;-73
2022/11/13 11:04:36;;;;;;;8.93;2.35;;;;;;;6.71;75.43;102313.22;5020869;28;20634;-75
2022/11/13 11:07:14;;;;;;;3.03;1.53;;;;;;;6.75;75.09;102323.50;5017961;28;20076;-76
2022/11/13 11:09:41;;;;;;;1.87;1.40;;;;;;;6.71;75.10;102307.91;5032419;28;20405;-76
2022/11/13 11:12:19;;;;;;;1.93;1.40;;;;;;;6.79;74.62;102321.50;5031357;28;20037;-74
2022/11/13 11:15:15;;;;;;;5.47;1.63;;;;;;;6.77;74.51;102326.06;5028800;28;20061;-79
2022/11/13 11:18:01;;;;;;;5.70;2.00;;;;;;;6.73;75.17;102333.34;4975587;28;20038;-77
2022/11/13 11:21:06;;;;;;;1.73;1.47;;;;;;;6.73;75.36;102332.50;4964006;28;20848;-76
2022/11/13 11:24:11;;;;;;;1.50;1.30;;;;;;;6.72;75.60;102334.31;5002350;28;20085;-78
2022/11/13 11:26:59;;;;;;;3.70;1.73;;;;;;;6.72;75.93;102336.09;5011011;28;20022;-79
2022/11/13 11:29:47;;;;;;;2.73;1.53;;;;;;;6.56;75.56;102308.91;5011163;28;20041;-74
2022/11/13 11:32:38;;;;;;;7.47;3.15;;;;;;;6.53;75.88;102315.25;5003203;28;20141;-77
2022/11/13 11:35:44;;;;;;;8.63;2.30;;;;;;;6.33;76.03;102275.97;5004314;28;20050;-77
2022/11/13 11:38:33;;;;;;;2.23;1.40;;;;;;;6.66;76.04;102342.66;4997617;28;20044;-76
2022/11/13 11:41:09;;;;;;;3.27;1.93;;;;;;;6.61;76.08;102343.88;4983419;28;20037;-76
2022/11/13 11:44:20;;;;;;;1.67;1.23;;;;;;;6.61;75.94;102349.16;5015246;28;20030;-81
2022/11/13 11:47:20;;;;;;;3.77;1.70;;;;;;;6.52;76.13;102350.59;4994366;28;20038;-79
2022/11/13 11:49:45;;;;;;;3.20;1.52;;;;;;;6.56;76.59;102372.44;5021357;28;20060;-75
2022/11/13 11:52:20;;;;;;;4.93;1.87;;;;;;;6.52;76.52;102361.19;5041509;28;20025;-76